Time;durP1;ratioP1;P1;durP2;ratioP2;P2;SDS_P1;SDS_P2;PMS_P1;PMS_P2;Temp;Humidity;BMP_temperature;BMP_pressure;BME280_temperature;BME280_humidity;BME280_pressure;Samples;Min_cycle;Max_cycle;Signal;HPM_P1;HPM_P2
2023/10/12 00:01:59;;;;;;;8.80;3.80;;;;;;;13.17;75.79;96063.94;5044242;28;20229;-69
2023/10/12 00:04:26;;;;;;;10.67;3.87;;;;;;;13.15;75.91;96063.31;5017208;28;20229;-68
2023/10/12 00:06:51;;;;;;;8.70;3.97;;;;;;;13.26;75.58;96066.28;5049569;28;20225;-70
2023/10/12 00:09:20;;;;;;;10.27;3.83;;;;;;;13.15;75.93;96060.69;5016299;28;20302;-68
2023/10/12 00:11:57;;;;;;;7.30;3.70;;;;;;;13.13;75.78;96058.28;5007888;28;20224;-70
2023/10/12 00:14:32;;;;;;;16.00;4.57;;;;;;;13.13;75.70;96053.00;5017442;28;20232;-70
2023/10/12 00:16:58;;;;;;;10.97;4.20;;;;;;;13.06;75.68;96046.06;5016700;28;20784;-69
2023/10/12 00:19:23;;;;;;;6.67;3.93;;;;;;;13.11;75.56;96048.94;5013881;28;20231;-70
2023/10/12 00:21:50;;;;;;;10.43;3.97;;;;;;;13.09;75.79;96046.47;5017413;28;20220;-70
2023/10/12 00:24:18;;;;;;;8.77;3.90;;;;;;;13.09;75.73;96043.84;4999314;28;20222;-68
2023/10/12 00:26:44;;;;;;;9.80;3.97;;;;;;;13.23;75.04;96042.97;5014120;28;20229;-70
2023/10/12 00:29:10;;;;;;;8.93;4.00;;;;;;;13.23;74.95;96042.19;5012884;28;20235;-69
2023/10/12 00:31:41;;;;;;;7.43;4.27;;;;;;;13.22;75.20;96041.38;5010345;28;20324;-69
2023/10/12 00:34:08;;;;;;;7.70;4.30;;;;;;;13.14;75.27;96027.50;5029219;28;20249;-69
2023/10/12 00:36:37;;;;;;;10.90;4.07;;;;;;;13.08;75.59;96030.91;5013500;28;20229;-70
2023/10/12 00:39:09;;;;;;;9.57;4.27;;;;;;;13.08;75.61;96026.47;5015687;28;20255;-69
2023/10/12 00:41:44;;;;;;;8.73;4.20;;;;;;;13.05;75.53;96020.72;5001034;28;20308;-68
2023/10/12 00:44:10;;;;;;;7.33;3.90;;;;;;;13.00;75.93;96020.47;5031243;28;20240;-69
2023/10/12 00:49:22;;;;;;;11.83;4.57;;;;;;;13.07;75.28;96016.94;5015804;28;20250;-70
2023/10/12 00:51:51;;;;;;;7.07;3.93;;;;;;;13.16;74.61;96021.06;5012242;28;20277;-69
2023/10/12 00:54:40;;;;;;;8.63;4.00;;;;;;;13.07;75.07;96021.38;5017065;28;20229;-74
2023/10/12 00:57:06;;;;;;;6.97;4.00;;;;;;;13.07;74.92;96024.84;5026871;28;20236;-72
2023/10/12 00:59:34;;;;;;;9.07;4.03;;;;;;;12.89;75.68;96011.28;5022524;28;20228;-72
2023/10/12 01:02:01;;;;;;;6.67;3.97;;;;;;;12.87;76.02;96018.56;4995872;28;20218;-69
2023/10/12 01:04:27;;;;;;;7.57;3.97;;;;;;;12.58;76.69;96021.25;5015635;28;20229;-69
2023/10/12 01:06:58;;;;;;;10.73;4.47;;;;;;;12.73;76.40;96022.00;5013739;28;20229;-69
2023/10/12 01:09:39;;;;;;;8.23;3.90;;;;;;;12.55;77.06;96009.31;4999326;28;20734;-69
2023/10/12 01:12:13;;;;;;;8.20;4.13;;;;;;;12.58;76.66;96011.56;5017051;28;20221;-70
2023/10/12 01:14:43;;;;;;;8.77;4.00;;;;;;;12.73;76.24;96008.88;5032902;28;20302;-69
2023/10/12 01:17:18;;;;;;;9.50;3.90;;;;;;;12.69;75.91;96005.00;5015147;28;20217;-69
2023/10/12 01:19:46;;;;;;;11.50;3.90;;;;;;;12.65;75.92;96007.19;5047290;28;20268;-69
2023/10/12 01:22:15;;;;;;;8.50;3.70;;;;;;;12.75;75.36;96010.31;5034158;28;20257;-70
2023/10/12 01:25:11;;;;;;;8.03;3.73;;;;;;;12.71;75.15;96008.25;5011979;28;21039;-70
2023/10/12 01:27:30;;;;;;;6.40;3.70;;;;;;;12.58;75.65;96010.75;5033185;28;20321;-69
2023/10/12 01:30:11;;;;;;;11.90;3.97;;;;;;;12.52;75.22;96011.47;5031688;28;20663;-69
2023/10/12 01:32:39;;;;;;;8.07;3.43;;;;;;;12.58;75.21;96006.31;5032941;28;20994;-69
2023/10/12 01:35:05;;;;;;;10.07;3.87;;;;;;;12.55;74.88;96006.69;5032666;28;20312;-70
2023/10/12 01:37:41;;;;;;;11.33;3.80;;;;;;;12.61;75.07;96010.38;5030359;28;20248;-70
2023/10/12 01:40:12;;;;;;;10.47;3.50;;;;;;;12.57;75.00;96006.47;5031866;28;20229;-70
2023/10/12 01:45:07;;;;;;;6.47;3.60;;;;;;;12.38;75.42;96002.63;5028339;28;20228;-69
2023/10/12 01:47:37;;;;;;;8.33;3.93;;;;;;;12.37;76.03;96008.06;5009630;28;20286;-69
2023/10/12 01:50:05;;;;;;;9.83;3.90;;;;;;;12.43;75.77;96004.69;4996354;28;20929;-70
2023/10/12 01:52:32;;;;;;;8.23;3.63;;;;;;;12.33;75.87;96009.41;5046439;28;20224;-70
2023/10/12 01:54:58;;;;;;;9.00;3.60;;;;;;;12.29;75.95;96005.53;5046838;28;20252;-69
2023/10/12 01:57:32;;;;;;;7.47;3.70;;;;;;;12.26;75.95;96005.91;5027888;28;20229;-70
2023/10/12 01:59:58;;;;;;;9.33;3.70;;;;;;;12.14;76.16;96005.56;5031661;28;20226;-70
2023/10/12 02:02:24;;;;;;;7.03;3.50;;;;;;;12.10;76.79;96013.00;5013271;28;20327;-70
2023/10/12 02:04:51;;;;;;;9.63;3.70;;;;;;;12.22;75.96;96015.16;5013807;28;20715;-68
2023/10/12 02:07:17;;;;;;;9.10;3.50;;;;;;;12.16;76.13;96009.63;5015158;28;20257;-69
2023/10/12 02:09:44;;;;;;;6.50;3.40;;;;;;;12.11;76.19;96014.59;5010989;28;20622;-70
2023/10/12 02:12:11;;;;;;;8.70;3.67;;;;;;;12.10;76.29;96013.00;5014963;28;20232;-70
2023/10/12 02:14:40;;;;;;;8.77;3.47;;;;;;;11.98;76.69;96014.44;5015641;28;20241;-73
2023/10/12 02:17:08;;;;;;;8.37;3.63;;;;;;;11.93;77.10;96010.72;5001390;28;20323;-75
2023/10/12 02:19:43;;;;;;;8.03;3.50;;;;;;;12.00;76.76;96012.44;5020078;28;20232;-73
2023/10/12 02:22:20;;;;;;;9.83;3.40;;;;;;;11.98;76.83;96009.19;5017897;28;20224;-72
2023/10/12 02:25:17;;;;;;;8.70;3.50;;;;;;;11.97;77.49;96012.78;5046346;28;20221;-70
2023/10/12 02:27:41;;;;;;;9.30;3.30;;;;;;;11.90;77.24;96006.66;5019779;28;20236;-72
2023/10/12 02:30:07;;;;;;;5.73;3.20;;;;;;;11.86;77.29;96013.25;5033823;28;20256;-73
2023/10/12 02:32:46;;;;;;;6.23;3.20;;;;;;;11.83;77.42;96016.25;5020848;28;20718;-73
2023/10/12 02:35:13;;;;;;;6.30;3.63;;;;;;;11.74;77.36;96019.13;5024643;28;20229;-74
2023/10/12 02:37:39;;;;;;;7.47;3.57;;;;;;;11.80;77.77;96013.97;5021293;28;20304;-73
2023/10/12 02:40:12;;;;;;;7.30;3.37;;;;;;;11.84;77.84;96014.44;5048212;28;20245;-74
2023/10/12 02:42:41;;;;;;;5.27;3.40;;;;;;;11.49;78.80;96008.00;5017411;28;20233;-72
2023/10/12 02:47:42;;;;;;;8.27;3.63;;;;;;;11.21;80.14;96009.56;5017411;28;20245;-72
2023/10/12 02:52:36;;;;;;;7.53;3.70;;;;;;;11.24;80.18;96014.47;5034831;28;20257;-73
2023/10/12 02:57:53;;;;;;;7.60;3.60;;;;;;;11.26;79.87;96009.88;5004067;28;20261;-73
2023/10/12 03:00:22;;;;;;;9.83;3.73;;;;;;;11.41;79.43;96010.72;5022198;28;20225;-74
2023/10/12 03:02:52;;;;;;;7.97;4.03;;;;;;;11.23;80.18;95999.72;5010636;28;20234;-74
2023/10/12 03:05:30;;;;;;;8.37;3.60;;;;;;;10.99;81.40;95999.91;5029877;28;20299;-74
2023/10/12 03:07:56;;;;;;;6.30;3.53;;;;;;;11.08;81.23;96004.13;5029276;28;20222;-74
2023/10/12 03:10:26;;;;;;;7.57;3.50;;;;;;;11.13;80.86;96004.44;5009559;28;20230;-74
2023/10/12 03:13:04;;;;;;;8.17;3.70;;;;;;;10.98;81.92;95998.31;5025395;28;20272;-72
2023/10/12 03:15:40;;;;;;;7.03;3.60;;;;;;;11.05;82.09;96004.47;5026346;28;20221;-74
2023/10/12 03:18:11;;;;;;;11.87;3.80;;;;;;;10.93;82.71;95996.22;5025150;28;20230;-73
2023/10/12 03:20:37;;;;;;;8.30;3.87;;;;;;;10.79;82.95;95999.59;5013085;28;20293;-74
2023/10/12 03:23:13;;;;;;;8.73;4.00;;;;;;;10.78;83.38;95992.72;4994581;28;20234;-73
2023/10/12 03:25:43;;;;;;;10.40;3.90;;;;;;;10.78;83.57;95996.16;5018251;28;20245;-74
2023/10/12 03:28:13;;;;;;;9.73;4.07;;;;;;;10.68;83.81;96002.59;5013914;28;20225;-73
2023/10/12 03:30:49;;;;;;;11.80;3.90;;;;;;;10.63;84.14;95995.25;5013331;28;20257;-73
2023/10/12 03:33:18;;;;;;;7.57;3.77;;;;;;;10.66;84.01;95992.31;4997806;28;20301;-72
2023/10/12 03:35:52;;;;;;;9.10;3.77;;;;;;;10.53;84.79;96001.72;5051871;28;20230;-75
2023/10/12 03:38:19;;;;;;;10.67;4.07;;;;;;;10.49;84.90;96003.03;5042232;28;20236;-74
2023/10/12 03:43:25;;;;;;;11.50;3.93;;;;;;;10.66;84.16;95999.34;5037681;28;20687;-70
2023/10/12 03:48:37;;;;;;;15.03;4.40;;;;;;;10.55;84.92;96012.84;5020119;28;20235;-70
2023/10/12 03:51:24;;;;;;;11.43;4.33;;;;;;;10.79;83.90;96005.63;5006598;28;20228;-69
2023/10/12 03:53:56;;;;;;;8.70;4.30;;;;;;;10.97;83.52;96001.91;5037164;28;20228;-69
2023/10/12 03:56:28;;;;;;;9.30;4.37;;;;;;;10.77;83.99;95998.97;5048905;28;20244;-70
2023/10/12 03:59:06;;;;;;;9.30;4.20;;;;;;;10.82;83.69;96010.53;5013867;28;20710;-70
2023/10/12 04:01:34;;;;;;;10.43;4.37;;;;;;;10.60;84.70;96008.69;5000933;28;20231;-70
2023/10/12 04:04:09;;;;;;;14.40;4.50;;;;;;;10.73;84.63;96006.34;4982772;28;20783;-69
2023/10/12 04:07:04;;;;;;;10.67;4.30;;;;;;;10.48;85.36;96010.09;5017968;28;20287;-70
2023/10/12 04:09:43;;;;;;;13.07;4.70;;;;;;;10.35;86.52;96011.63;5000156;28;20237;-70
2023/10/12 04:14:55;;;;;;;9.73;4.37;;;;;;;10.17;87.14;96006.66;5029063;28;20234;-70
2023/10/12 04:23:04;;;;;;;9.97;4.60;;;;;;;10.31;85.46;96013.78;5017924;28;20268;-70
2023/10/12 04:33:43;;;;;;;12.00;5.37;;;;;;;10.24;87.03;96009.38;4980190;28;20232;-70
2023/10/12 04:36:13;;;;;;;15.37;5.10;;;;;;;10.36;86.62;96014.09;5019618;28;20305;-70
2023/10/12 04:38:57;;;;;;;11.10;5.10;;;;;;;10.44;86.66;96011.41;5022871;28;20244;-75
2023/10/12 04:41:23;;;;;;;13.87;5.73;;;;;;;10.54;85.60;96011.19;5042116;28;20308;-73
2023/10/12 04:43:53;;;;;;;13.60;5.57;;;;;;;10.41;85.54;96001.28;5001460;28;20861;-74
2023/10/12 04:52:02;;;;;;;12.50;4.43;;;;;;;10.19;86.36;95998.63;4991468;28;20710;-74
2023/10/12 04:54:28;;;;;;;9.03;4.77;;;;;;;10.26;85.52;96000.38;5049193;28;20249;-73
2023/10/12 04:59:42;;;;;;;20.40;4.83;;;;;;;10.08;85.85;96007.59;5029355;28;20263;-73
2023/10/12 05:09:34;;;;;;;16.93;4.90;;;;;;;10.51;83.92;96008.91;5014117;28;20228;-74
2023/10/12 05:11:59;;;;;;;13.27;5.80;;;;;;;10.34;84.62;96013.41;4992921;28;20222;-75
2023/10/12 05:14:25;;;;;;;18.03;5.73;;;;;;;10.72;83.54;96009.91;5012092;28;20232;-73
2023/10/12 05:16:51;;;;;;;15.13;5.50;;;;;;;10.61;83.54;96012.13;4996265;28;20726;-74
2023/10/12 05:19:17;;;;;;;13.87;5.90;;;;;;;10.64;83.34;96017.84;5027729;28;20229;-73
2023/10/12 05:21:43;;;;;;;17.73;5.90;;;;;;;10.63;83.21;96020.63;5047762;28;21318;-74
2023/10/12 05:24:09;;;;;;;10.83;5.70;;;;;;;10.88;81.81;96023.91;4998542;28;20230;-74
2023/10/12 05:26:35;;;;;;;13.93;6.40;;;;;;;10.55;83.61;96028.53;5046543;28;20221;-74
2023/10/12 05:29:34;;;;;;;18.53;6.40;;;;;;;10.67;83.38;96027.97;5024688;28;20374;-73
2023/10/12 05:32:06;;;;;;;17.93;6.50;;;;;;;10.59;83.61;96035.88;5006028;28;20306;-75
2023/10/12 05:39:46;;;;;;;19.20;6.07;;;;;;;10.98;82.42;96038.41;5010798;28;25834;-75
2023/10/12 05:42:14;;;;;;;15.87;6.90;;;;;;;10.77;83.50;96048.72;5013366;28;20256;-74
2023/10/12 05:44:43;;;;;;;16.60;7.40;;;;;;;10.92;81.98;96039.09;5017832;28;20226;-74
2023/10/12 05:47:12;;;;;;;22.70;7.30;;;;;;;10.88;83.06;96040.44;5042405;28;20251;-75
2023/10/12 05:49:41;;;;;;;17.97;7.63;;;;;;;10.80;83.40;96054.41;5008560;28;20279;-76
2023/10/12 05:52:08;;;;;;;16.40;7.07;;;;;;;11.03;81.89;96049.19;5022343;28;20230;-74
2023/10/12 05:54:34;;;;;;;17.43;7.30;;;;;;;11.11;82.07;96053.53;4998992;28;20238;-74
2023/10/12 05:57:19;;;;;;;20.70;7.50;;;;;;;11.21;81.66;96041.84;5008689;28;20241;-74
2023/10/12 05:59:45;;;;;;;17.93;7.73;;;;;;;11.26;80.94;96039.50;5012692;28;20274;-74
2023/10/12 06:02:11;;;;;;;17.07;7.50;;;;;;;11.30;80.62;96045.19;5047442;28;20225;-74
2023/10/12 06:04:36;;;;;;;14.90;7.00;;;;;;;11.45;80.59;96040.81;5030577;28;21027;-74
2023/10/12 06:07:02;;;;;;;20.80;7.80;;;;;;;11.45;80.51;96048.69;5017944;28;20234;-73
2023/10/12 06:09:35;;;;;;;16.43;7.20;;;;;;;11.53;79.98;96048.63;5004713;28;20233;-74
2023/10/12 06:12:06;;;;;;;23.73;7.53;;;;;;;11.58;79.90;96041.06;5028873;28;20225;-74
2023/10/12 06:14:35;;;;;;;22.23;7.47;;;;;;;11.55;80.18;96038.78;4999869;28;20257;-74
2023/10/12 06:17:27;;;;;;;22.60;7.73;;;;;;;11.34;80.89;96041.25;5048680;28;20317;-70
2023/10/12 06:19:55;;;;;;;16.33;7.50;;;;;;;11.47;80.24;96047.53;5016949;28;20269;-69
2023/10/12 06:22:20;;;;;;;17.93;7.50;;;;;;;11.66;79.68;96046.19;5012929;28;20998;-71
2023/10/12 06:24:49;;;;;;;18.20;7.63;;;;;;;11.67;80.01;96039.97;5007521;28;20226;-69
2023/10/12 06:29:46;;;;;;;17.57;7.47;;;;;;;11.66;80.28;96046.19;5032846;28;20327;-69
2023/10/12 06:32:18;;;;;;;20.77;7.20;;;;;;;11.88;79.98;96039.31;5023813;28;20691;-69
2023/10/12 06:34:44;;;;;;;15.60;7.30;;;;;;;11.80;79.31;96042.81;5029982;28;20229;-70
2023/10/12 06:42:38;;;;;;;20.97;7.93;;;;;;;11.96;78.39;96047.09;5031391;28;20892;-69
2023/10/12 06:45:07;;;;;;;18.40;7.37;;;;;;;12.02;78.92;96047.19;5014999;28;20297;-70
2023/10/12 06:47:42;;;;;;;16.73;7.93;;;;;;;12.12;77.90;96047.72;4992444;28;20715;-69
2023/10/12 06:50:15;;;;;;;32.13;8.17;;;;;;;12.27;77.36;96047.72;5008999;28;20225;-68
2023/10/12 06:52:41;;;;;;;20.90;8.03;;;;;;;12.26;77.92;96045.28;5024427;28;20241;-69
2023/10/12 06:55:09;;;;;;;20.33;8.20;;;;;;;12.26;78.28;96048.72;5017786;28;20221;-69
2023/10/12 06:57:43;;;;;;;20.33;7.90;;;;;;;12.26;77.82;96050.53;5023503;28;20244;-69
2023/10/12 07:02:35;;;;;;;21.23;8.30;;;;;;;12.39;76.92;96048.91;5027311;28;20230;-70
2023/10/12 07:05:03;;;;;;;20.30;8.07;;;;;;;12.36;77.41;96046.63;5010537;28;20274;-70
2023/10/12 07:07:36;;;;;;;23.43;8.23;;;;;;;12.58;77.01;96055.41;5027828;28;20228;-69
2023/10/12 07:12:45;;;;;;;21.60;8.03;;;;;;;12.61;76.53;96047.16;5033066;28;20282;-69
2023/10/12 07:15:19;;;;;;;17.27;8.00;;;;;;;12.74;76.54;96048.13;5027140;28;20232;-69
2023/10/12 07:17:51;;;;;;;18.77;8.40;;;;;;;12.85;76.31;96050.25;5009185;28;20239;-69
2023/10/12 07:20:40;;;;;;;19.00;8.40;;;;;;;12.93;75.70;96049.31;5027755;28;20243;-69
2023/10/12 07:23:16;;;;;;;19.97;8.33;;;;;;;12.98;75.69;96048.75;5000905;28;20245;-68
2023/10/12 07:25:48;;;;;;;19.00;8.37;;;;;;;13.04;75.37;96046.19;4999393;28;20247;-69
2023/10/12 07:28:18;;;;;;;18.60;8.17;;;;;;;12.86;75.54;96051.06;4976834;28;20287;-69
2023/10/12 07:31:02;;;;;;;20.23;8.37;;;;;;;13.08;75.74;96049.31;5028931;28;20237;-68
2023/10/12 07:33:30;;;;;;;19.87;8.40;;;;;;;13.22;75.26;96045.81;5014278;28;20326;-68
2023/10/12 07:35:56;;;;;;;18.40;8.00;;;;;;;13.26;74.71;96050.50;5017228;28;20221;-70
2023/10/12 07:38:35;;;;;;;20.30;8.80;;;;;;;13.31;74.35;96052.56;5029229;28;20245;-70
2023/10/12 07:41:00;;;;;;;20.27;8.77;;;;;;;13.36;74.48;96047.56;5013760;28;20282;-69
2023/10/12 07:43:32;;;;;;;19.40;8.47;;;;;;;13.46;73.88;96043.63;5025308;28;20738;-70
2023/10/12 07:48:51;;;;;;;19.10;9.13;;;;;;;13.57;73.79;96046.72;5025203;28;20240;-69
2023/10/12 07:51:53;;;;;;;22.23;8.50;;;;;;;13.64;73.53;96039.69;5013527;28;20247;-70
2023/10/12 07:54:25;;;;;;;24.67;8.70;;;;;;;13.69;73.12;96046.00;5005821;28;20241;-69
2023/10/12 07:56:52;;;;;;;18.07;8.47;;;;;;;13.80;73.23;96049.94;5025710;28;20234;-70
2023/10/12 07:59:22;;;;;;;15.93;8.10;;;;;;;13.85;73.43;96037.03;5003199;28;20805;-70
2023/10/12 08:01:50;;;;;;;16.20;7.70;;;;;;;13.89;72.85;96035.63;4992455;28;20314;-69
2023/10/12 08:04:31;;;;;;;15.70;7.87;;;;;;;14.04;72.70;96036.34;5033615;28;20236;-68
2023/10/12 08:06:57;;;;;;;19.17;8.20;;;;;;;13.98;72.94;96032.66;5014085;28;21059;-70
2023/10/12 08:11:53;;;;;;;22.03;8.33;;;;;;;14.07;72.82;96030.66;5025267;28;20221;-70
2023/10/12 08:19:43;;;;;;;13.77;7.67;;;;;;;14.39;71.51;96024.00;5013515;28;20255;-70
2023/10/12 08:22:17;;;;;;;14.53;7.50;;;;;;;14.25;71.41;96017.81;5044849;28;20224;-69
2023/10/12 08:24:45;;;;;;;19.60;8.07;;;;;;;14.24;70.91;96015.38;5028504;28;20316;-69
2023/10/12 08:27:12;;;;;;;18.30;7.37;;;;;;;14.43;70.83;96012.88;5034039;28;20248;-70
2023/10/12 08:32:15;;;;;;;15.33;7.20;;;;;;;14.58;70.77;96010.91;5025569;28;20230;-69
2023/10/12 08:37:18;;;;;;;15.50;7.23;;;;;;;14.59;70.21;96003.81;5048508;28;20226;-70
2023/10/12 08:45:11;;;;;;;17.47;7.20;;;;;;;14.79;69.57;95991.50;4987958;28;20242;-69
2023/10/12 08:50:08;;;;;;;15.30;7.20;;;;;;;15.00;69.20;95995.81;5009376;28;20312;-68
2023/10/12 08:52:36;;;;;;;21.63;7.50;;;;;;;15.03;69.50;95984.84;5009713;28;20291;-69
2023/10/12 08:55:12;;;;;;;20.30;7.40;;;;;;;15.12;69.27;95975.72;5024736;28;20259;-70
2023/10/12 08:57:51;;;;;;;20.30;7.40;;;;;;;15.15;69.32;95977.97;5005162;28;20225;-70
2023/10/12 09:00:39;;;;;;;20.00;7.20;;;;;;;15.17;68.35;95971.50;5008210;28;20245;-70
2023/10/12 09:03:08;;;;;;;22.17;7.80;;;;;;;15.34;68.18;95959.53;4996872;28;20798;-69
2023/10/12 09:05:34;;;;;;;19.20;7.40;;;;;;;15.50;67.70;95960.97;5008157;28;20230;-69
2023/10/12 09:13:35;;;;;;;16.73;6.87;;;;;;;15.78;66.65;95950.19;5027752;28;20232;-68
2023/10/12 09:16:05;;;;;;;14.37;6.73;;;;;;;15.67;66.59;95954.25;5014402;28;20657;-68
2023/10/12 09:18:34;;;;;;;18.13;6.90;;;;;;;15.67;66.47;95945.50;5027048;28;20281;-69
2023/10/12 09:23:46;;;;;;;17.13;7.00;;;;;;;15.93;66.69;95937.56;5026989;28;20230;-70
2023/10/12 09:26:15;;;;;;;14.43;6.87;;;;;;;16.02;65.55;95934.50;5017036;28;20264;-69
2023/10/12 09:31:16;;;;;;;16.37;7.07;;;;;;;16.32;64.36;95931.31;5009364;28;20237;-69
2023/10/12 09:33:45;;;;;;;48.23;11.67;;;;;;;16.19;63.76;95930.34;5024932;28;20718;-69
2023/10/12 09:36:11;;;;;;;23.37;7.90;;;;;;;16.33;64.17;95917.91;5028214;28;20807;-69
2023/10/12 09:38:38;;;;;;;21.47;7.47;;;;;;;16.45;64.09;95913.59;5027132;28;20246;-69
2023/10/12 09:41:06;;;;;;;17.23;7.30;;;;;;;16.71;62.91;95907.34;4972114;28;20229;-69
2023/10/12 09:43:31;;;;;;;18.97;6.53;;;;;;;16.84;62.41;95913.38;4989256;28;20241;-69
2023/10/12 09:46:04;;;;;;;15.83;6.43;;;;;;;16.81;62.28;95905.06;4974674;28;20231;-69
2023/10/12 09:48:38;;;;;;;14.23;6.93;;;;;;;16.87;62.51;95901.56;4989203;28;20285;-69
2023/10/12 09:51:06;;;;;;;17.50;6.20;;;;;;;16.94;62.93;95882.97;5007820;28;20235;-70
2023/10/12 09:53:40;;;;;;;16.63;6.33;;;;;;;17.03;61.51;95884.34;5005339;28;20291;-70
2023/10/12 09:56:24;;;;;;;15.87;6.20;;;;;;;17.19;61.19;95886.47;4971593;28;20243;-70
2023/10/12 09:58:52;;;;;;;14.83;6.60;;;;;;;17.32;61.92;95883.69;4992449;28;20230;-69
2023/10/12 10:06:51;;;;;;;14.33;6.13;;;;;;;17.52;61.21;95865.81;5007736;28;20348;-68
2023/10/12 10:09:37;;;;;;;17.10;6.30;;;;;;;17.58;60.69;95859.63;5005482;28;20708;-69
2023/10/12 10:12:05;;;;;;;18.97;6.30;;;;;;;17.63;60.20;95858.97;4975566;28;20249;-70
2023/10/12 10:14:37;;;;;;;15.07;6.30;;;;;;;17.78;59.58;95856.78;5003865;28;20281;-69
2023/10/12 10:17:07;;;;;;;12.47;6.17;;;;;;;17.82;60.18;95844.69;4990158;28;20870;-69
2023/10/12 10:19:33;;;;;;;15.87;6.50;;;;;;;17.89;59.31;95856.03;5004545;28;20243;-70
2023/10/12 10:22:11;;;;;;;17.93;6.00;;;;;;;17.98;59.85;95857.38;4990795;28;20254;-69
2023/10/12 10:24:58;;;;;;;18.30;6.47;;;;;;;18.05;59.99;95847.50;4989614;28;20231;-70
2023/10/12 10:27:46;;;;;;;12.50;6.10;;;;;;;18.16;59.81;95834.31;5008271;28;20861;-69
2023/10/12 10:30:36;;;;;;;13.70;5.97;;;;;;;18.30;58.37;95840.22;5000091;28;20312;-70
2023/10/12 10:33:17;;;;;;;14.43;6.50;;;;;;;18.39;58.35;95830.13;4987249;28;20723;-69
2023/10/12 10:36:10;;;;;;;15.87;6.43;;;;;;;18.57;57.51;95830.91;5019597;28;20230;-70
2023/10/12 10:38:39;;;;;;;22.47;6.40;;;;;;;18.66;57.84;95826.88;5021681;28;20332;-68
2023/10/12 10:41:05;;;;;;;16.83;6.00;;;;;;;18.68;58.01;95824.81;5020839;28;20229;-69
2023/10/12 10:43:37;;;;;;;16.67;6.43;;;;;;;18.76;57.70;95821.03;5013344;28;20224;-73
2023/10/12 10:46:13;;;;;;;12.73;6.20;;;;;;;18.82;58.15;95812.16;5030257;28;20798;-71
2023/10/12 10:48:42;;;;;;;21.77;6.53;;;;;;;18.98;57.23;95813.34;4982605;28;20233;-73
2023/10/12 10:51:18;;;;;;;20.80;6.53;;;;;;;18.94;57.50;95809.53;5000073;28;20231;-73
2023/10/12 10:53:51;;;;;;;13.53;6.13;;;;;;;19.07;56.67;95804.00;4990416;28;20249;-74
2023/10/12 10:56:16;;;;;;;15.30;6.20;;;;;;;19.23;56.37;95793.50;5024257;28;20900;-73
2023/10/12 10:58:45;;;;;;;18.87;6.40;;;;;;;19.26;55.26;95797.53;4989006;28;20233;-72
2023/10/12 11:01:12;;;;;;;16.43;6.50;;;;;;;19.31;55.64;95790.50;5027983;28;20253;-73
2023/10/12 11:03:42;;;;;;;15.93;6.20;;;;;;;19.47;55.37;95786.34;5009928;28;20258;-74
2023/10/12 11:06:21;;;;;;;13.90;6.00;;;;;;;19.57;54.94;95786.56;5000891;28;21269;-73
2023/10/12 11:09:05;;;;;;;16.17;6.17;;;;;;;19.64;55.56;95773.13;4992138;28;20654;-73
2023/10/12 11:11:37;;;;;;;17.47;5.93;;;;;;;19.78;55.65;95774.47;5024691;28;20222;-73
2023/10/12 11:14:04;;;;;;;12.03;6.10;;;;;;;19.85;54.71;95770.66;5000734;28;20233;-73
2023/10/12 11:16:30;;;;;;;22.53;6.50;;;;;;;19.89;54.35;95763.84;4995682;28;20241;-74
2023/10/12 11:18:57;;;;;;;14.93;6.17;;;;;;;20.07;54.04;95766.31;5009150;28;20235;-74
2023/10/12 11:21:23;;;;;;;17.40;6.40;;;;;;;20.22;53.09;95757.00;5026951;28;20229;-74
2023/10/12 11:23:51;;;;;;;14.43;6.20;;;;;;;20.36;53.04;95750.34;5011516;28;20729;-73
2023/10/12 11:26:19;;;;;;;12.33;5.90;;;;;;;20.43;53.57;95751.81;5029884;28;20287;-72
2023/10/12 11:28:48;;;;;;;17.80;6.10;;;;;;;20.46;52.92;95742.56;5002147;28;20262;-73
2023/10/12 11:31:20;;;;;;;15.47;6.10;;;;;;;20.44;52.76;95745.47;4999660;28;20225;-74
2023/10/12 11:33:53;;;;;;;12.97;5.97;;;;;;;20.36;52.67;95734.41;5008202;28;20220;-74
2023/10/12 11:36:24;;;;;;;12.93;5.57;;;;;;;20.41;52.59;95745.13;5013557;28;20784;-74
2023/10/12 11:39:30;;;;;;;14.53;5.60;;;;;;;20.49;51.94;95732.22;5009550;28;20269;-74
2023/10/12 11:42:06;;;;;;;15.83;5.73;;;;;;;20.44;52.44;95728.69;5027510;28;20254;-73
2023/10/12 11:44:36;;;;;;;19.93;5.80;;;;;;;20.49;51.92;95726.13;5035847;28;20228;-73
2023/10/12 11:47:07;;;;;;;12.97;5.60;;;;;;;20.53;52.30;95720.09;5018133;28;20224;-74
2023/10/12 11:49:58;;;;;;;16.57;5.67;;;;;;;20.60;52.32;95712.75;5009972;28;20225;-75
2023/10/12 11:52:32;;;;;;;12.57;5.73;;;;;;;20.57;52.71;95709.75;5009544;28;20296;-72
2023/10/12 11:55:18;;;;;;;14.60;5.50;;;;;;;20.58;51.67;95706.06;4998671;28;20304;-74
2023/10/12 11:57:44;;;;;;;14.53;5.87;;;;;;;20.61;51.58;95706.34;5032458;28;20228;-73
2023/10/12 12:00:26;;;;;;;16.00;5.67;;;;;;;20.63;51.76;95704.28;5032047;28;20308;-73
2023/10/12 12:02:57;;;;;;;14.83;5.67;;;;;;;20.61;51.94;95700.25;5002984;28;20260;-73
2023/10/12 12:05:23;;;;;;;18.20;6.00;;;;;;;20.61;51.49;95700.25;5032342;28;20255;-73
2023/10/12 12:07:51;;;;;;;16.27;5.63;;;;;;;20.62;51.97;95696.53;5018277;28;20249;-73
2023/10/12 12:13:12;;;;;;;13.43;5.63;;;;;;;20.56;51.70;95692.19;4991432;28;20892;-73
2023/10/12 12:15:43;;;;;;;16.43;6.00;;;;;;;20.57;52.01;95696.44;5010902;28;20244;-73
2023/10/12 12:20:44;;;;;;;14.17;5.43;;;;;;;20.67;51.52;95688.63;5020844;28;20236;-73
2023/10/12 12:23:12;;;;;;;17.93;5.80;;;;;;;20.59;51.43;95684.53;5017180;28;20260;-73
2023/10/12 12:25:39;;;;;;;18.27;5.70;;;;;;;20.55;52.28;95679.94;5012962;28;20240;-73
2023/10/12 12:28:09;;;;;;;14.57;5.50;;;;;;;20.61;52.15;95678.97;4999175;28;20221;-73
2023/10/12 12:30:36;;;;;;;18.07;5.87;;;;;;;20.63;52.37;95669.69;4990089;28;20727;-74
2023/10/12 12:33:08;;;;;;;17.03;5.83;;;;;;;20.59;52.28;95673.88;5017792;28;20234;-73
2023/10/12 12:35:36;;;;;;;12.00;5.20;;;;;;;20.76;51.70;95665.88;4988806;28;20218;-73
2023/10/12 12:38:04;;;;;;;17.43;5.30;;;;;;;20.72;52.33;95664.75;5015908;28;20328;-72
2023/10/12 12:40:30;;;;;;;9.47;5.07;;;;;;;20.74;52.31;95666.13;5024154;28;20226;-73
2023/10/12 12:43:00;;;;;;;13.23;5.50;;;;;;;20.75;52.68;95661.63;5027996;28;20226;-73
2023/10/12 12:45:26;;;;;;;12.07;5.20;;;;;;;20.78;52.17;95658.44;5024998;28;20226;-72
2023/10/12 12:47:51;;;;;;;11.37;5.77;;;;;;;20.78;52.45;95658.44;4996345;28;20238;-73
2023/10/12 12:50:17;;;;;;;12.27;5.17;;;;;;;20.87;52.15;95646.34;5030088;28;20230;-73
2023/10/12 12:52:46;;;;;;;14.00;5.27;;;;;;;20.94;50.90;95647.00;5027417;28;20915;-73
2023/10/12 12:55:16;;;;;;;10.93;5.30;;;;;;;21.01;51.08;95647.63;5028425;28;20225;-73
2023/10/12 12:57:42;;;;;;;14.20;5.23;;;;;;;20.99;50.98;95636.41;5042671;28;20226;-73
2023/10/12 13:00:10;;;;;;;14.67;5.30;;;;;;;21.03;51.01;95634.84;5015205;28;20218;-71
2023/10/12 13:02:36;;;;;;;13.50;5.20;;;;;;;21.04;50.93;95638.31;5025865;28;20238;-70
2023/10/12 13:05:04;;;;;;;13.67;5.10;;;;;;;20.95;51.40;95629.94;5028698;28;20222;-68
2023/10/12 13:07:30;;;;;;;10.97;4.93;;;;;;;21.06;51.57;95628.25;4994102;28;20230;-69
2023/10/12 13:09:57;;;;;;;15.47;5.27;;;;;;;21.05;51.32;95635.44;5008124;28;20233;-69
2023/10/12 13:12:23;;;;;;;14.93;5.13;;;;;;;21.08;50.99;95632.28;5001711;28;20223;-69
2023/10/12 13:14:48;;;;;;;12.10;5.20;;;;;;;21.12;51.04;95620.09;5010512;28;20230;-69
2023/10/12 13:17:16;;;;;;;14.40;5.20;;;;;;;21.12;51.05;95628.06;5009065;28;20533;-70
2023/10/12 13:19:44;;;;;;;15.73;5.30;;;;;;;21.09;50.74;95622.47;4991396;28;20241;-70
2023/10/12 13:22:10;;;;;;;14.83;5.30;;;;;;;21.09;50.09;95612.59;5022235;28;20222;-69
2023/10/12 13:24:37;;;;;;;16.80;5.00;;;;;;;21.12;51.42;95617.44;5025702;28;20226;-70
2023/10/12 13:27:08;;;;;;;13.53;4.73;;;;;;;21.10;50.45;95611.53;5007341;28;20229;-69
2023/10/12 13:29:34;;;;;;;12.57;4.90;;;;;;;21.14;51.41;95606.50;5022846;28;20294;-70
2023/10/12 13:32:00;;;;;;;8.80;4.70;;;;;;;21.11;51.92;95607.81;5025995;28;20734;-70
2023/10/12 13:34:27;;;;;;;10.60;4.57;;;;;;;21.11;51.57;95604.38;5024256;28;20321;-70
2023/10/12 13:36:52;;;;;;;13.80;4.83;;;;;;;21.06;51.18;95604.31;5009306;28;20230;-70
2023/10/12 13:39:18;;;;;;;12.17;4.97;;;;;;;21.11;51.56;95602.50;5025135;28;20241;-69